Time,TemperatureF,DewpointF,PressureIn,WindDirection,WindDirectionDegrees,WindSpeedMPH,WindSpeedGustMPH,Humidity,HourlyPrecipIn,Conditions,Clouds,dailyrainin,SoftwareType,DateUTC
2013-01-26 00:00:00,48.2,45.5,30.02,ENE,68,0.0,0.4,90,0.00,,,0.00,WUHU216HW,2013-01-26 08:00:00,
2013-01-26 00:06:00,48.1,45.4,30.01,ENE,68,0.0,0.4,90,0.00,,,0.00,WUHU216HW,2013-01-26 08:06:00,
2013-01-26 00:11:00,47.9,45.2,30.01,ENE,68,0.0,0.0,90,0.00,,,0.00,WUHU216HW,2013-01-26 08:11:00,
2013-01-26 00:17:00,47.9,45.2,30.01,ENE,68,0.0,0.0,90,0.00,,,0.00,WUHU216HW,2013-01-26 08:17:00,
2013-01-26 00:22:00,47.7,45.0,30.01,ENE,68,0.0,0.0,90,0.00,,,0.00,WUHU216HW,2013-01-26 08:22:00,
2013-01-26 00:27:00,47.5,44.8,30.01,ENE,68,0.0,0.0,90,0.00,,,0.00,WUHU216HW,2013-01-26 08:27:00,
2013-01-26 00:32:00,47.5,44.8,30.01,ENE,68,0.0,0.0,90,0.00,,,0.00,WUHU216HW,2013-01-26 08:32:00,
2013-01-26 00:37:00,47.3,44.6,30.00,ENE,68,0.4,0.4,90,0.00,,,0.00,WUHU216HW,2013-01-26 08:37:00,
2013-01-26 00:42:00,47.2,44.5,30.00,ENE,68,0.4,0.4,90,0.00,,,0.00,WUHU216HW,2013-01-26 08:42:00,
2013-01-26 00:48:00,47.2,44.5,30.00,ENE,68,0.0,0.4,90,0.00,,,0.00,WUHU216HW,2013-01-26 08:48:00,
2013-01-26 00:53:00,47.0,44.3,30.00,ENE,68,0.4,0.4,90,0.00,,,0.00,WUHU216HW,2013-01-26 08:53:00,
2013-01-26 00:58:00,46.8,44.1,30.00,ENE,68,0.2,0.4,90,0.00,,,0.00,WUHU216HW,2013-01-26 08:58:00,
2013-01-26 01:03:00,46.8,44.4,30.00,East,90,0.4,0.4,91,0.00,,,0.00,WUHU216HW,2013-01-26 09:03:00,
2013-01-26 01:08:00,46.8,44.4,30.00,East,90,0.7,0.9,91,0.00,,,0.00,WUHU216HW,2013-01-26 09:08:00,
2013-01-26 01:13:00,46.6,44.2,30.00,East,90,0.7,0.9,91,0.00,,,0.00,WUHU216HW,2013-01-26 09:13:00,
2013-01-26 01:18:00,46.8,44.4,29.99,East,90,0.0,0.7,91,0.00,,,0.00,WUHU216HW,2013-01-26 09:18:00,
2013-01-26 01:23:00,46.6,44.2,30.00,East,90,0.0,0.0,91,0.00,,,0.00,WUHU216HW,2013-01-26 09:23:00,
2013-01-26 01:28:00,46.4,44.0,29.99,East,90,0.0,0.0,91,0.00,,,0.00,WUHU216HW,2013-01-26 09:28:00,
2013-01-26 01:33:00,46.4,44.0,30.00,ENE,68,0.4,0.4,91,0.00,,,0.00,WUHU216HW,2013-01-26 09:33:00,
2013-01-26 01:38:00,46.3,43.8,29.99,ENE,68,0.2,0.4,91,0.00,,,0.00,WUHU216HW,2013-01-26 09:38:00,
2013-01-26 01:44:00,46.1,43.7,29.99,ENE,68,0.0,0.4,91,0.00,,,0.00,WUHU216HW,2013-01-26 09:44:00,
2013-01-26 01:49:00,45.9,43.5,30.00,ENE,68,0.4,0.4,91,0.00,,,0.00,WUHU216HW,2013-01-26 09:49:00,
2013-01-26 01:54:00,45.7,43.3,30.00,ENE,68,0.4,0.4,91,0.00,,,0.00,WUHU216HW,2013-01-26 09:54:00,
2013-01-26 01:59:00,45.7,43.3,30.00,ENE,68,0.2,0.4,91,0.00,,,0.00,WUHU216HW,2013-01-26 09:59:00,
2013-01-26 02:04:00,45.5,43.1,30.00,ENE,68,0.4,0.4,91,0.00,,,0.00,WUHU216HW,2013-01-26 10:04:00,
2013-01-26 02:09:00,45.5,43.1,30.00,ENE,68,0.7,0.7,91,0.00,,,0.00,WUHU216HW,2013-01-26 10:09:00,
2013-01-26 02:14:00,45.5,43.1,30.00,ENE,68,0.0,0.7,91,0.00,,,0.00,WUHU216HW,2013-01-26 10:14:00,
2013-01-26 02:19:00,45.5,43.1,30.00,ENE,68,0.0,0.4,91,0.00,,,0.00,WUHU216HW,2013-01-26 10:19:00,
2013-01-26 02:25:00,45.7,43.3,30.00,ENE,68,0.0,0.2,91,0.00,,,0.00,WUHU216HW,2013-01-26 10:25:00,
2013-01-26 02:30:00,45.7,43.3,30.00,ENE,68,0.2,0.2,91,0.00,,,0.00,WUHU216HW,2013-01-26 10:30:00,
2013-01-26 02:35:00,45.9,43.7,30.00,ENE,68,0.0,0.2,92,0.00,,,0.00,WUHU216HW,2013-01-26 10:35:00,
2013-01-26 02:40:00,46.1,43.9,29.99,ENE,68,0.4,0.4,92,0.00,,,0.00,WUHU216HW,2013-01-26 10:40:00,
2013-01-26 02:45:00,46.1,43.9,29.99,East,90,0.0,1.1,92,0.00,,,0.00,WUHU216HW,2013-01-26 10:45:00,
2013-01-26 02:50:00,46.3,44.1,29.99,East,90,0.0,1.1,92,0.00,,,0.00,WUHU216HW,2013-01-26 10:50:00,
2013-01-26 02:55:00,46.3,44.1,29.99,East,90,0.0,0.0,92,0.00,,,0.00,WUHU216HW,2013-01-26 10:55:00,
2013-01-26 03:00:00,46.3,44.1,29.99,East,90,0.0,0.0,92,0.00,,,0.00,WUHU216HW,2013-01-26 11:00:00,
2013-01-26 03:05:00,46.3,44.1,29.99,East,90,0.0,0.2,92,0.00,,,0.00,WUHU216HW,2013-01-26 11:05:00,
2013-01-26 03:10:00,46.4,44.3,29.99,East,90,0.2,0.4,92,0.00,,,0.00,WUHU216HW,2013-01-26 11:10:00,
2013-01-26 03:15:00,46.4,44.3,29.99,East,90,0.0,0.4,92,0.00,,,0.00,WUHU216HW,2013-01-26 11:15:00,
2013-01-26 03:20:00,46.4,44.3,29.98,East,90,0.7,0.7,92,0.00,,,0.00,WUHU216HW,2013-01-26 11:20:00,
2013-01-26 03:25:00,46.4,44.3,29.98,East,90,0.0,0.7,92,0.00,,,0.00,WUHU216HW,2013-01-26 11:25:00,
2013-01-26 03:30:00,46.4,44.3,29.98,East,90,0.4,0.4,92,0.00,,,0.00,WUHU216HW,2013-01-26 11:30:00,
2013-01-26 03:35:00,46.4,44.3,29.98,East,90,0.0,0.4,92,0.00,,,0.00,WUHU216HW,2013-01-26 11:35:00,
2013-01-26 03:41:00,46.4,44.3,29.98,East,90,0.2,0.4,92,0.00,,,0.00,WUHU216HW,2013-01-26 11:41:00,
2013-01-26 03:46:00,46.4,44.3,29.98,East,90,0.0,0.4,92,0.00,,,0.00,WUHU216HW,2013-01-26 11:46:00,
2013-01-26 03:51:00,46.4,44.3,29.98,East,90,0.2,0.2,92,0.00,,,0.00,WUHU216HW,2013-01-26 11:51:00,
2013-01-26 03:56:00,46.3,44.1,29.98,East,90,0.0,0.2,92,0.00,,,0.00,WUHU216HW,2013-01-26 11:56:00,
2013-01-26 04:01:00,46.3,44.1,29.98,East,90,0.0,0.0,92,0.00,,,0.00,WUHU216HW,2013-01-26 12:01:00,
2013-01-26 04:06:00,46.3,44.1,29.98,East,90,0.0,0.2,92,0.00,,,0.00,WUHU216HW,2013-01-26 12:06:00,
2013-01-26 04:12:00,46.3,44.1,29.98,East,90,0.0,0.2,92,0.00,,,0.00,WUHU216HW,2013-01-26 12:12:00,
2013-01-26 04:17:00,46.3,44.1,29.98,East,90,0.0,0.0,92,0.00,,,0.00,WUHU216HW,2013-01-26 12:17:00,
2013-01-26 04:22:00,46.4,44.6,29.97,East,90,0.0,0.0,93,0.00,,,0.00,WUHU216HW,2013-01-26 12:22:00,
2013-01-26 04:27:00,46.4,44.6,29.97,ENE,68,0.0,0.2,93,0.00,,,0.00,WUHU216HW,2013-01-26 12:27:00,
2013-01-26 04:32:00,46.4,44.6,29.97,ENE,68,0.0,0.2,93,0.00,,,0.00,WUHU216HW,2013-01-26 12:32:00,
2013-01-26 04:37:00,46.4,44.6,29.97,ENE,68,0.0,0.0,93,0.00,,,0.00,WUHU216HW,2013-01-26 12:37:00,
2013-01-26 04:42:00,46.4,44.6,29.97,ENE,68,0.0,0.0,93,0.00,,,0.00,WUHU216HW,2013-01-26 12:42:00,
2013-01-26 04:47:00,46.4,44.6,29.97,ENE,68,0.0,0.0,93,0.00,,,0.00,WUHU216HW,2013-01-26 12:47:00,
2013-01-26 04:52:00,46.4,44.6,29.97,East,90,0.0,0.0,93,0.00,,,0.00,WUHU216HW,2013-01-26 12:52:00,
2013-01-26 04:57:00,46.4,44.6,29.97,East,90,0.0,0.0,93,0.00,,,0.00,WUHU216HW,2013-01-26 12:57:00,
2013-01-26 05:03:00,46.4,44.6,29.97,East,90,0.2,0.4,93,0.00,,,0.00,WUHU216HW,2013-01-26 13:03:00,
2013-01-26 05:08:00,46.4,44.6,29.97,East,90,0.4,0.7,93,0.00,,,0.00,WUHU216HW,2013-01-26 13:08:00,
2013-01-26 05:13:00,46.3,44.4,29.97,ENE,68,0.0,0.7,93,0.00,,,0.00,WUHU216HW,2013-01-26 13:13:00,
2013-01-26 05:18:00,46.3,44.4,29.97,North,0,0.4,0.4,93,0.00,,,0.00,WUHU216HW,2013-01-26 13:18:00,
2013-01-26 05:23:00,46.3,44.4,29.97,North,0,0.0,0.4,93,0.00,,,0.00,WUHU216HW,2013-01-26 13:23:00,
2013-01-26 05:28:00,46.1,44.2,29.97,North,0,0.4,0.4,93,0.00,,,0.00,WUHU216HW,2013-01-26 13:28:00,
2013-01-26 05:33:00,46.3,44.4,29.97,NNE,23,0.4,0.4,93,0.00,,,0.00,WUHU216HW,2013-01-26 13:33:00,
2013-01-26 05:38:00,46.1,44.2,29.97,NNE,23,0.0,0.4,93,0.00,,,0.00,WUHU216HW,2013-01-26 13:38:00,
2013-01-26 05:43:00,46.1,44.2,29.97,NNE,23,0.0,0.4,93,0.00,,,0.00,WUHU216HW,2013-01-26 13:43:00,
2013-01-26 05:48:00,46.1,44.2,29.97,NNE,23,0.0,0.0,93,0.00,,,0.00,WUHU216HW,2013-01-26 13:48:00,
2013-01-26 05:53:00,45.9,44.0,29.97,ENE,68,0.4,0.7,93,0.00,,,0.00,WUHU216HW,2013-01-26 13:53:00,
2013-01-26 05:59:00,45.9,44.0,29.97,East,90,0.7,1.1,93,0.00,,,0.00,WUHU216HW,2013-01-26 13:59:00,
2013-01-26 06:04:00,45.7,43.6,29.96,East,90,0.0,1.1,92,0.00,,,0.00,WUHU216HW,2013-01-26 14:04:00,
2013-01-26 06:09:00,45.5,43.4,29.96,East,90,0.4,0.4,92,0.00,,,0.00,WUHU216HW,2013-01-26 14:09:00,
2013-01-26 06:14:00,45.4,43.2,29.96,East,90,0.2,0.7,92,0.00,,,0.00,WUHU216HW,2013-01-26 14:14:00,
2013-01-26 06:19:00,45.0,42.8,29.96,East,90,0.4,0.7,92,0.00,,,0.00,WUHU216HW,2013-01-26 14:19:00,
2013-01-26 06:24:00,44.8,42.7,29.96,NE,45,0.2,0.7,92,0.00,,,0.00,WUHU216HW,2013-01-26 14:24:00,
2013-01-26 06:29:00,44.6,42.5,29.96,East,90,0.7,0.7,92,0.00,,,0.00,WUHU216HW,2013-01-26 14:29:00,
2013-01-26 06:34:00,44.3,42.1,29.96,East,90,0.4,1.1,92,0.00,,,0.00,WUHU216HW,2013-01-26 14:34:00,
2013-01-26 06:39:00,44.3,42.4,29.96,ESE,113,0.0,1.1,93,0.00,,,0.00,WUHU216HW,2013-01-26 14:39:00,
2013-01-26 06:44:00,44.1,42.2,29.96,ESE,113,0.2,0.4,93,0.00,,,0.00,WUHU216HW,2013-01-26 14:44:00,
2013-01-26 06:49:00,44.1,42.2,29.96,NNE,23,0.9,0.9,93,0.00,,,0.00,WUHU216HW,2013-01-26 14:49:00,
2013-01-26 06:54:00,44.1,42.2,29.96,North,0,0.0,0.9,93,0.00,,,0.00,WUHU216HW,2013-01-26 14:54:00,
2013-01-26 07:00:00,43.9,42.0,29.96,NNE,23,0.7,0.9,93,0.00,,,0.00,WUHU216HW,2013-01-26 15:00:00,
2013-01-26 07:05:00,43.7,41.9,29.96,NE,45,0.4,0.7,93,0.00,,,0.00,WUHU216HW,2013-01-26 15:05:00,
2013-01-26 07:10:00,43.7,41.9,29.96,SE,135,0.0,0.4,93,0.00,,,0.00,WUHU216HW,2013-01-26 15:10:00,
2013-01-26 07:15:00,43.6,41.7,29.96,SE,135,0.0,0.4,93,0.00,,,0.00,WUHU216HW,2013-01-26 15:15:00,
2013-01-26 07:20:00,43.6,41.7,29.96,ENE,68,0.0,0.4,93,0.00,,,0.00,WUHU216HW,2013-01-26 15:20:00,
2013-01-26 07:25:00,43.4,41.5,29.96,East,90,0.0,0.7,93,0.00,,,0.00,WUHU216HW,2013-01-26 15:25:00,
2013-01-26 07:30:00,43.4,41.5,29.96,North,0,0.0,0.7,93,0.00,,,0.00,WUHU216HW,2013-01-26 15:30:00,
2013-01-26 07:35:00,43.4,41.5,29.95,East,90,0.0,0.7,93,0.00,,,0.00,WUHU216HW,2013-01-26 15:35:00,
2013-01-26 07:40:00,43.2,41.3,29.95,NE,45,0.0,0.7,93,0.00,,,0.00,WUHU216HW,2013-01-26 15:40:00,
2013-01-26 07:45:00,43.4,41.5,29.96,SE,135,0.4,0.7,93,0.00,,,0.00,WUHU216HW,2013-01-26 15:45:00,
2013-01-26 07:50:00,43.6,41.7,29.96,NE,45,0.4,0.4,93,0.00,,,0.00,WUHU216HW,2013-01-26 15:50:00,
2013-01-26 07:55:00,43.7,41.9,29.96,NW,315,0.2,0.4,93,0.00,,,0.00,WUHU216HW,2013-01-26 15:55:00,
2013-01-26 08:00:00,44.1,42.2,29.96,NE,45,0.0,0.4,93,0.00,,,0.00,WUHU216HW,2013-01-26 16:00:00,
2013-01-26 08:05:00,44.5,42.6,29.96,North,0,0.0,0.4,93,0.00,,,0.00,WUHU216HW,2013-01-26 16:05:00,
2013-01-26 08:11:00,45.0,43.1,29.96,WNW,293,0.4,0.4,93,0.00,,,0.00,WUHU216HW,2013-01-26 16:11:00,
2013-01-26 08:15:00,45.4,43.5,29.97,West,270,1.1,1.1,93,0.00,,,0.00,WUHU216HW,2013-01-26 16:15:00,
2013-01-26 08:21:00,46.1,44.5,29.97,NNW,338,0.0,1.1,94,0.00,,,0.00,WUHU216HW,2013-01-26 16:21:00,
2013-01-26 08:26:00,46.6,45.0,29.96,NNW,338,0.0,1.6,94,0.00,,,0.00,WUHU216HW,2013-01-26 16:26:00,
2013-01-26 08:31:00,47.2,45.5,29.96,NNE,23,0.2,1.6,94,0.00,,,0.00,WUHU216HW,2013-01-26 16:31:00,
2013-01-26 08:36:00,47.5,45.9,29.97,NW,315,0.2,1.1,94,0.00,,,0.00,WUHU216HW,2013-01-26 16:36:00,
2013-01-26 08:41:00,47.7,46.1,29.97,SE,135,1.3,1.3,94,0.00,,,0.00,WUHU216HW,2013-01-26 16:41:00,
2013-01-26 08:46:00,47.9,46.3,29.96,East,90,0.9,1.3,94,0.00,,,0.00,WUHU216HW,2013-01-26 16:46:00,
2013-01-26 08:51:00,48.1,46.4,29.97,ENE,68,0.0,1.3,94,0.00,,,0.00,WUHU216HW,2013-01-26 16:51:00,
2013-01-26 08:56:00,48.4,46.8,29.97,ESE,113,0.0,0.4,94,0.00,,,0.00,WUHU216HW,2013-01-26 16:56:00,
2013-01-26 09:01:00,48.6,47.0,29.97,NE,45,0.4,1.3,94,0.00,,,0.00,WUHU216HW,2013-01-26 17:01:00,
2013-01-26 09:07:00,48.8,47.2,29.97,NE,45,1.3,1.3,94,0.00,,,0.00,WUHU216HW,2013-01-26 17:07:00,
2013-01-26 09:12:00,49.0,47.4,29.97,NNE,23,0.7,1.3,94,0.00,,,0.00,WUHU216HW,2013-01-26 17:12:00,
2013-01-26 09:17:00,49.1,47.4,29.97,ESE,113,0.2,0.9,94,0.00,,,0.00,WUHU216HW,2013-01-26 17:17:00,
2013-01-26 09:22:00,49.3,47.6,29.97,West,270,2.2,2.2,94,0.00,,,0.00,WUHU216HW,2013-01-26 17:22:00,
2013-01-26 09:27:00,49.5,47.8,29.97,WSW,248,5.4,5.4,94,0.00,,,0.00,WUHU216HW,2013-01-26 17:27:00,
2013-01-26 09:32:00,49.7,48.0,29.97,WNW,293,0.4,5.4,94,0.00,,,0.00,WUHU216HW,2013-01-26 17:32:00,
2013-01-26 09:37:00,49.9,48.2,29.97,SW,225,4.0,4.0,94,0.00,,,0.00,WUHU216HW,2013-01-26 17:37:00,
2013-01-26 09:42:00,50.2,48.5,29.98,WNW,293,5.8,5.8,94,0.00,,,0.00,WUHU216HW,2013-01-26 17:42:00,
2013-01-26 09:47:00,50.6,48.9,29.98,WNW,293,6.0,6.0,94,0.00,,,0.00,WUHU216HW,2013-01-26 17:47:00,
2013-01-26 09:52:00,50.4,48.7,29.98,West,270,3.1,6.3,94,0.00,,,0.00,WUHU216HW,2013-01-26 17:52:00,
2013-01-26 09:59:00,50.8,49.1,29.98,West,270,0.4,6.3,94,0.00,,,0.00,WUHU216HW,2013-01-26 17:59:00,
2013-01-26 10:04:00,51.1,49.4,29.98,WSW,248,5.4,5.4,94,0.00,,,0.00,WUHU216HW,2013-01-26 18:04:00,
2013-01-26 10:09:00,51.3,49.6,29.98,SSW,203,5.1,5.6,94,0.00,,,0.00,WUHU216HW,2013-01-26 18:09:00,
2013-01-26 10:14:00,51.1,48.2,29.98,SW,225,7.8,7.8,90,0.00,,,0.00,WUHU216HW,2013-01-26 18:14:00,
2013-01-26 10:19:00,51.7,48.2,29.98,WSW,248,4.0,7.8,88,0.00,,,0.00,WUHU216HW,2013-01-26 18:19:00,
2013-01-26 10:24:00,52.0,48.3,29.98,NW,315,4.9,7.4,87,0.00,,,0.00,WUHU216HW,2013-01-26 18:24:00,
2013-01-26 10:29:00,52.9,48.8,29.98,SW,225,7.2,7.4,86,0.00,,,0.00,WUHU216HW,2013-01-26 18:29:00,
2013-01-26 10:34:00,53.1,47.8,29.98,SW,225,5.1,7.2,82,0.00,,,0.00,WUHU216HW,2013-01-26 18:34:00,
2013-01-26 10:39:00,53.1,48.1,29.98,SSW,203,5.8,6.5,83,0.00,,,0.00,WUHU216HW,2013-01-26 18:39:00,
2013-01-26 10:44:00,53.3,47.6,29.98,SW,225,5.6,6.5,81,0.00,,,0.00,WUHU216HW,2013-01-26 18:44:00,
2013-01-26 10:50:00,53.5,47.5,29.98,SSW,203,5.6,5.6,80,0.00,,,0.00,WUHU216HW,2013-01-26 18:50:00,
2013-01-26 10:55:00,53.5,47.2,29.98,SSE,158,1.8,5.8,79,0.00,,,0.00,WUHU216HW,2013-01-26 18:55:00,
2013-01-26 11:00:00,53.8,47.2,29.98,South,180,6.7,6.7,78,0.00,,,0.00,WUHU216HW,2013-01-26 19:00:00,
2013-01-26 11:05:00,54.2,46.8,29.98,WSW,248,4.9,6.7,76,0.00,,,0.00,WUHU216HW,2013-01-26 19:05:00,
2013-01-26 11:10:00,54.5,47.4,29.98,WSW,248,3.6,7.2,77,0.00,,,0.00,WUHU216HW,2013-01-26 19:10:00,
2013-01-26 11:15:00,54.7,46.9,29.98,SSW,203,4.0,7.2,75,0.00,,,0.00,WUHU216HW,2013-01-26 19:15:00,
2013-01-26 11:20:00,54.9,46.1,29.97,WSW,248,1.1,5.4,72,0.00,,,0.00,WUHU216HW,2013-01-26 19:20:00,
2013-01-26 11:25:00,55.1,47.3,29.97,SW,225,4.3,6.5,75,0.00,,,0.00,WUHU216HW,2013-01-26 19:25:00,
2013-01-26 11:30:00,55.3,47.1,29.97,SW,225,3.6,6.5,74,0.00,,,0.00,WUHU216HW,2013-01-26 19:30:00,
2013-01-26 11:36:00,55.4,47.3,29.96,West,270,4.7,6.3,74,0.00,,,0.00,WUHU216HW,2013-01-26 19:36:00,
2013-01-26 11:41:00,55.6,47.1,29.96,SW,225,1.8,6.3,73,0.00,,,0.00,WUHU216HW,2013-01-26 19:41:00,
2013-01-26 11:46:00,55.4,47.3,29.96,South,180,2.5,5.4,74,0.00,,,0.00,WUHU216HW,2013-01-26 19:46:00,
2013-01-26 11:51:00,55.8,47.3,29.96,WNW,293,5.4,6.7,73,0.00,,,0.00,WUHU216HW,2013-01-26 19:51:00,
2013-01-26 11:56:00,56.0,46.7,29.96,SW,225,5.1,6.7,71,0.00,,,0.00,WUHU216HW,2013-01-26 19:56:00,
2013-01-26 12:01:00,56.3,47.1,29.96,WSW,248,0.7,6.0,71,0.00,,,0.00,WUHU216HW,2013-01-26 20:01:00,
2013-01-26 12:06:00,56.5,46.1,29.96,WSW,248,4.5,4.7,68,0.00,,,0.00,WUHU216HW,2013-01-26 20:06:00,
2013-01-26 12:11:00,56.9,45.6,29.96,SW,225,8.7,8.7,66,0.00,,,0.00,WUHU216HW,2013-01-26 20:11:00,
2013-01-26 12:16:00,56.9,45.6,29.96,SSW,203,3.4,8.7,66,0.00,,,0.00,WUHU216HW,2013-01-26 20:16:00,
2013-01-26 12:21:00,57.2,45.2,29.96,SSW,203,5.6,6.7,64,0.00,,,0.00,WUHU216HW,2013-01-26 20:21:00,
2013-01-26 12:26:00,57.2,45.5,29.96,NW,315,4.3,8.3,65,0.00,,,0.00,WUHU216HW,2013-01-26 20:26:00,
2013-01-26 12:31:00,57.2,44.7,29.96,WSW,248,7.8,8.3,63,0.00,,,0.00,WUHU216HW,2013-01-26 20:31:00,
2013-01-26 12:36:00,57.6,44.6,29.95,WSW,248,4.7,7.8,62,0.00,,,0.00,WUHU216HW,2013-01-26 20:36:00,
2013-01-26 12:41:00,57.8,44.0,29.95,SW,225,2.5,8.9,60,0.00,,,0.00,WUHU216HW,2013-01-26 20:41:00,
2013-01-26 12:46:00,58.0,44.2,29.95,SW,225,5.6,8.9,60,0.00,,,0.00,WUHU216HW,2013-01-26 20:46:00,
2013-01-26 12:51:00,58.0,43.7,29.95,WSW,248,5.4,9.4,59,0.00,,,0.00,WUHU216HW,2013-01-26 20:51:00,
2013-01-26 12:56:00,58.0,42.9,29.95,SW,225,4.7,9.4,57,0.00,,,0.00,WUHU216HW,2013-01-26 20:56:00,
2013-01-26 13:01:00,58.0,42.3,29.95,WSW,248,3.4,9.2,56,0.00,,,0.00,WUHU216HW,2013-01-26 21:01:00,
2013-01-26 13:06:00,58.1,42.5,29.95,SSW,203,4.7,9.2,56,0.00,,,0.00,WUHU216HW,2013-01-26 21:06:00,
2013-01-26 13:12:00,58.3,42.7,29.95,West,270,5.4,8.9,56,0.00,,,0.00,WUHU216HW,2013-01-26 21:12:00,
2013-01-26 13:17:00,58.5,42.4,29.95,West,270,6.3,8.9,55,0.00,,,0.00,WUHU216HW,2013-01-26 21:17:00,
2013-01-26 13:22:00,58.3,41.2,29.95,WSW,248,4.7,8.3,53,0.00,,,0.00,WUHU216HW,2013-01-26 21:22:00,
2013-01-26 13:27:00,58.5,41.4,29.95,WSW,248,6.0,8.3,53,0.00,,,0.00,WUHU216HW,2013-01-26 21:27:00,
2013-01-26 13:32:00,58.5,42.4,29.94,West,270,8.1,8.1,55,0.00,,,0.00,WUHU216HW,2013-01-26 21:32:00,
2013-01-26 13:37:00,58.5,42.9,29.95,NW,315,9.2,10.1,56,0.00,,,0.00,WUHU216HW,2013-01-26 21:37:00,
2013-01-26 13:42:00,58.3,43.1,29.95,West,270,6.0,10.1,57,0.00,,,0.00,WUHU216HW,2013-01-26 21:42:00,
2013-01-26 13:47:00,58.3,43.6,29.95,West,270,9.6,10.5,58,0.00,,,0.00,WUHU216HW,2013-01-26 21:47:00,
2013-01-26 13:52:00,58.1,43.5,29.95,West,270,5.6,10.5,58,0.00,,,0.00,WUHU216HW,2013-01-26 21:52:00,
2013-01-26 13:57:00,58.0,43.7,29.95,SSW,203,6.3,6.3,59,0.00,,,0.00,WUHU216HW,2013-01-26 21:57:00,
2013-01-26 14:02:00,57.6,43.4,29.95,SW,225,2.7,8.5,59,0.00,,,0.00,WUHU216HW,2013-01-26 22:02:00,
2013-01-26 14:08:00,57.2,43.6,29.95,WSW,248,6.9,10.7,60,0.00,,,0.00,WUHU216HW,2013-01-26 22:08:00,
2013-01-26 14:13:00,57.6,43.9,29.95,SW,225,6.7,10.7,60,0.00,,,0.00,WUHU216HW,2013-01-26 22:13:00,
2013-01-26 14:18:00,57.4,43.3,29.95,South,180,4.0,7.2,59,0.00,,,0.00,WUHU216HW,2013-01-26 22:18:00,
2013-01-26 14:23:00,56.9,43.6,29.95,SW,225,6.3,7.2,61,0.00,,,0.00,WUHU216HW,2013-01-26 22:23:00,
2013-01-26 14:28:00,56.7,43.0,29.95,WSW,248,8.5,8.7,60,0.00,,,0.00,WUHU216HW,2013-01-26 22:28:00,
2013-01-26 14:33:00,56.5,43.2,29.95,WSW,248,8.1,10.5,61,0.00,,,0.00,WUHU216HW,2013-01-26 22:33:00,
2013-01-26 14:38:00,56.5,42.8,29.96,WNW,293,7.6,12.3,60,0.00,,,0.00,WUHU216HW,2013-01-26 22:38:00,
2013-01-26 14:43:00,56.7,43.8,29.95,West,270,6.3,12.3,62,0.00,,,0.00,WUHU216HW,2013-01-26 22:43:00,
2013-01-26 14:48:00,56.9,43.6,29.95,West,270,9.8,9.8,61,0.00,,,0.00,WUHU216HW,2013-01-26 22:48:00,
2013-01-26 14:53:00,57.2,43.9,29.95,SSW,203,8.9,10.1,61,0.00,,,0.00,WUHU216HW,2013-01-26 22:53:00,
2013-01-26 14:58:00,57.2,43.6,29.96,SW,225,9.6,9.6,60,0.00,,,0.00,WUHU216HW,2013-01-26 22:58:00,
2013-01-26 15:03:00,57.1,43.4,29.96,West,270,7.2,12.1,60,0.00,,,0.00,WUHU216HW,2013-01-26 23:03:00,
2013-01-26 15:08:00,56.9,42.3,29.96,WSW,248,9.8,12.1,58,0.00,,,0.00,WUHU216HW,2013-01-26 23:08:00,
2013-01-26 15:14:00,56.7,43.0,29.96,West,270,8.1,9.8,60,0.00,,,0.00,WUHU216HW,2013-01-26 23:14:00,
2013-01-26 15:19:00,56.5,42.8,29.96,WSW,248,6.3,10.5,60,0.00,,,0.00,WUHU216HW,2013-01-26 23:19:00,
2013-01-26 15:24:00,56.3,42.7,29.96,WSW,248,6.3,10.5,60,0.00,,,0.00,WUHU216HW,2013-01-26 23:24:00,
2013-01-26 15:29:00,56.2,42.9,29.96,West,270,6.3,10.3,61,0.00,,,0.00,WUHU216HW,2013-01-26 23:29:00,
2013-01-26 15:34:00,56.0,43.1,29.96,SW,225,6.9,7.4,62,0.00,,,0.00,WUHU216HW,2013-01-26 23:34:00,
2013-01-26 15:39:00,55.8,42.9,29.96,SW,225,4.7,14.1,62,0.00,,,0.00,WUHU216HW,2013-01-26 23:39:00,
2013-01-26 15:44:00,55.4,42.6,29.96,WSW,248,4.0,14.1,62,0.00,,,0.00,WUHU216HW,2013-01-26 23:44:00,
2013-01-26 15:49:00,55.3,42.4,29.96,WSW,248,10.1,10.1,62,0.00,,,0.00,WUHU216HW,2013-01-26 23:49:00,
2013-01-26 15:54:00,54.9,42.5,29.96,SW,225,9.2,11.4,63,0.00,,,0.00,WUHU216HW,2013-01-26 23:54:00,
2013-01-26 15:59:00,54.7,42.3,29.96,SW,225,8.5,11.4,63,0.00,,,0.00,WUHU216HW,2013-01-26 23:59:00,
2013-01-26 16:04:00,54.5,42.2,29.95,SW,225,12.1,13.9,63,0.00,,,0.00,WUHU216HW,2013-01-27 00:04:00,
2013-01-26 16:09:00,54.2,41.9,29.95,SW,225,10.5,13.9,63,0.00,,,0.00,WUHU216HW,2013-01-27 00:09:00,
2013-01-26 16:14:00,54.0,42.0,29.95,WSW,248,7.4,10.5,64,0.00,,,0.00,WUHU216HW,2013-01-27 00:14:00,
2013-01-26 16:20:00,53.6,41.8,29.95,West,270,6.9,8.3,64,0.00,,,0.00,WUHU216HW,2013-01-27 00:20:00,
2013-01-26 16:25:00,53.5,41.9,29.95,WSW,248,6.0,10.7,65,0.00,,,0.00,WUHU216HW,2013-01-27 00:25:00,
2013-01-26 16:30:00,53.1,42.0,29.95,WNW,293,3.6,9.2,66,0.00,,,0.00,WUHU216HW,2013-01-27 00:30:00,
2013-01-26 16:35:00,52.7,41.7,29.95,WNW,293,1.3,8.1,66,0.00,,,0.00,WUHU216HW,2013-01-27 00:35:00,
2013-01-26 16:40:00,52.6,42.0,29.95,NW,315,2.7,5.6,67,0.00,,,0.00,WUHU216HW,2013-01-27 00:40:00,
2013-01-26 16:45:00,52.4,41.8,29.96,WNW,293,3.8,4.5,67,0.00,,,0.00,WUHU216HW,2013-01-27 00:45:00,
2013-01-26 16:50:00,52.2,41.9,29.96,WNW,293,2.5,8.5,68,0.00,,,0.00,WUHU216HW,2013-01-27 00:50:00,
2013-01-26 16:55:00,52.0,41.9,29.96,West,270,4.3,8.5,68,0.00,,,0.00,WUHU216HW,2013-01-27 00:55:00,
2013-01-26 17:00:00,51.8,41.7,29.97,NW,315,1.1,4.3,68,0.00,,,0.00,WUHU216HW,2013-01-27 01:00:00,
2013-01-26 17:05:00,51.7,41.5,29.97,SW,225,6.0,6.0,68,0.00,,,0.00,WUHU216HW,2013-01-27 01:05:00,
2013-01-26 17:11:00,51.3,41.5,29.97,West,270,7.8,7.8,69,0.00,,,0.00,WUHU216HW,2013-01-27 01:11:00,
2013-01-26 17:16:00,51.1,41.3,29.97,West,270,4.0,7.8,69,0.00,,,0.00,WUHU216HW,2013-01-27 01:16:00,
2013-01-26 17:21:00,50.8,41.4,29.97,WSW,248,4.5,4.9,70,0.00,,,0.00,WUHU216HW,2013-01-27 01:21:00,
2013-01-26 17:26:00,50.4,41.0,29.97,West,270,2.0,4.9,70,0.00,,,0.00,WUHU216HW,2013-01-27 01:26:00,
2013-01-26 17:31:00,50.2,41.2,29.97,West,270,3.4,5.6,71,0.00,,,0.00,WUHU216HW,2013-01-27 01:31:00,
2013-01-26 17:36:00,50.0,41.4,29.97,WSW,248,1.1,5.6,72,0.00,,,0.00,WUHU216HW,2013-01-27 01:36:00,
2013-01-26 17:41:00,49.7,41.1,29.98,SW,225,2.5,5.4,72,0.00,,,0.00,WUHU216HW,2013-01-27 01:41:00,
2013-01-26 17:46:00,49.5,41.1,29.97,West,270,4.0,5.4,73,0.00,,,0.00,WUHU216HW,2013-01-27 01:46:00,
2013-01-26 17:51:00,49.3,41.3,29.97,West,270,1.6,5.6,74,0.00,,,0.00,WUHU216HW,2013-01-27 01:51:00,
2013-01-26 17:56:00,49.0,41.0,29.97,SW,225,1.3,5.6,74,0.00,,,0.00,WUHU216HW,2013-01-27 01:56:00,
2013-01-26 18:01:00,48.8,41.1,29.97,WSW,248,1.1,2.5,75,0.00,,,0.00,WUHU216HW,2013-01-27 02:01:00,
2013-01-26 18:06:00,48.6,41.0,29.97,West,270,1.6,4.3,75,0.00,,,0.00,WUHU216HW,2013-01-27 02:06:00,
2013-01-26 18:11:00,48.4,40.8,29.97,WSW,248,2.9,4.3,75,0.00,,,0.00,WUHU216HW,2013-01-27 02:11:00,
2013-01-26 18:16:00,48.2,41.0,29.97,WSW,248,1.8,4.0,76,0.00,,,0.00,WUHU216HW,2013-01-27 02:16:00,
2013-01-26 18:22:00,48.1,40.4,29.97,SW,225,0.7,4.0,75,0.00,,,0.00,WUHU216HW,2013-01-27 02:22:00,
2013-01-26 18:27:00,47.9,40.6,29.97,West,270,2.0,2.7,76,0.00,,,0.00,WUHU216HW,2013-01-27 02:27:00,
2013-01-26 18:32:00,47.7,40.4,29.97,WSW,248,2.2,2.7,76,0.00,,,0.00,WUHU216HW,2013-01-27 02:32:00,
2013-01-26 18:37:00,47.5,40.3,29.97,WSW,248,1.1,2.5,76,0.00,,,0.00,WUHU216HW,2013-01-27 02:37:00,
2013-01-26 18:42:00,47.3,40.2,29.98,WSW,248,3.4,3.4,76,0.00,,,0.00,WUHU216HW,2013-01-27 02:42:00,
2013-01-26 18:47:00,47.2,40.3,29.98,WSW,248,0.4,3.4,77,0.00,,,0.00,WUHU216HW,2013-01-27 02:47:00,
2013-01-26 18:52:00,47.2,40.7,29.98,West,270,1.8,4.7,78,0.00,,,0.00,WUHU216HW,2013-01-27 02:52:00,
2013-01-26 18:57:00,47.0,40.1,29.98,WSW,248,1.8,4.7,77,0.00,,,0.00,WUHU216HW,2013-01-27 02:57:00,
2013-01-26 19:02:00,46.8,40.3,29.98,West,270,2.0,2.0,78,0.00,,,0.00,WUHU216HW,2013-01-27 03:02:00,
2013-01-26 19:07:00,46.6,39.8,29.98,SW,225,2.5,3.4,77,0.00,,,0.00,WUHU216HW,2013-01-27 03:07:00,
2013-01-26 19:12:00,46.8,40.0,29.98,WSW,248,2.9,3.4,77,0.00,,,0.00,WUHU216HW,2013-01-27 03:12:00,
2013-01-26 19:17:00,46.6,39.8,29.98,SSW,203,1.8,2.9,77,0.00,,,0.00,WUHU216HW,2013-01-27 03:17:00,
2013-01-26 19:23:00,46.6,39.8,29.98,WSW,248,0.7,2.7,77,0.00,,,0.00,WUHU216HW,2013-01-27 03:23:00,
2013-01-26 19:28:00,46.4,39.7,29.99,SW,225,2.0,2.7,77,0.00,,,0.00,WUHU216HW,2013-01-27 03:28:00,
2013-01-26 19:33:00,46.4,40.0,29.99,WSW,248,2.5,3.8,78,0.00,,,0.00,WUHU216HW,2013-01-27 03:33:00,
2013-01-26 19:38:00,46.3,39.5,29.99,SW,225,1.1,4.0,77,0.00,,,0.00,WUHU216HW,2013-01-27 03:38:00,
2013-01-26 19:43:00,46.3,39.5,29.99,SW,225,1.1,4.0,77,0.00,,,0.00,WUHU216HW,2013-01-27 03:43:00,
2013-01-26 19:48:00,46.1,39.3,29.99,WSW,248,2.7,2.7,77,0.00,,,0.00,WUHU216HW,2013-01-27 03:48:00,
2013-01-26 19:53:00,46.1,39.3,29.99,SSW,203,1.3,3.4,77,0.00,,,0.00,WUHU216HW,2013-01-27 03:53:00,
2013-01-26 19:58:00,46.1,39.3,30.00,West,270,1.8,4.7,77,0.00,,,0.00,WUHU216HW,2013-01-27 03:58:00,
2013-01-26 20:03:00,45.9,39.2,30.00,WNW,293,0.7,4.7,77,0.00,,,0.00,WUHU216HW,2013-01-27 04:03:00,
2013-01-26 20:08:00,45.7,39.0,30.00,NNE,23,0.4,2.5,77,0.00,,,0.00,WUHU216HW,2013-01-27 04:08:00,
2013-01-26 20:13:00,45.4,38.6,30.00,North,0,0.0,0.7,77,0.00,,,0.00,WUHU216HW,2013-01-27 04:13:00,
2013-01-26 20:19:00,45.2,38.4,30.00,North,0,0.0,1.6,77,0.00,,,0.00,WUHU216HW,2013-01-27 04:19:00,
2013-01-26 20:24:00,45.0,38.5,30.00,East,90,0.4,1.6,78,0.00,,,0.00,WUHU216HW,2013-01-27 04:24:00,
2013-01-26 20:29:00,45.0,38.5,30.00,NW,315,0.0,0.4,78,0.00,,,0.00,WUHU216HW,2013-01-27 04:29:00,
2013-01-26 20:34:00,44.8,38.3,30.00,NE,45,0.9,0.9,78,0.00,,,0.00,WUHU216HW,2013-01-27 04:34:00,
2013-01-26 20:39:00,44.6,38.2,30.00,WNW,293,0.4,1.8,78,0.00,,,0.00,WUHU216HW,2013-01-27 04:39:00,
2013-01-26 20:44:00,44.5,38.0,30.00,WNW,293,0.4,0.4,78,0.00,,,0.00,WUHU216HW,2013-01-27 04:44:00,
2013-01-26 20:49:00,44.3,37.8,30.00,NNE,23,0.2,0.4,78,0.00,,,0.00,WUHU216HW,2013-01-27 04:49:00,
2013-01-26 20:54:00,43.9,37.8,30.00,NE,45,0.0,0.7,79,0.00,,,0.00,WUHU216HW,2013-01-27 04:54:00,
2013-01-26 20:59:00,43.7,37.6,30.00,NE,45,0.0,0.7,79,0.00,,,0.00,WUHU216HW,2013-01-27 04:59:00,
2013-01-26 21:00:00,43.6,37.4,30.00,NE,45,0.0,0.7,79,0.00,,,0.00,WUHU216HW,2013-01-27 05:00:00,
2013-01-26 21:03:00,43.6,37.4,30.00,SSW,203,0.4,0.7,79,0.00,,,0.00,WUHU216HW,2013-01-27 05:03:00,
2013-01-26 21:08:00,43.4,37.6,30.00,ESE,113,0.2,0.4,80,0.00,,,0.00,WUHU216HW,2013-01-27 05:08:00,
2013-01-26 21:13:00,43.2,37.4,30.00,SE,135,0.4,0.4,80,0.00,,,0.00,WUHU216HW,2013-01-27 05:13:00,
2013-01-26 21:18:00,42.8,37.1,30.00,SE,135,0.4,0.4,80,0.00,,,0.00,WUHU216HW,2013-01-27 05:18:00,
2013-01-26 21:23:00,42.7,37.2,30.01,ESE,113,0.0,0.4,81,0.00,,,0.00,WUHU216HW,2013-01-27 05:23:00,
2013-01-26 21:28:00,42.5,37.0,30.00,East,90,0.7,0.7,81,0.00,,,0.00,WUHU216HW,2013-01-27 05:28:00,
2013-01-26 21:33:00,42.3,36.8,30.01,East,90,0.0,1.3,81,0.00,,,0.00,WUHU216HW,2013-01-27 05:33:00,
2013-01-26 21:38:00,42.1,37.0,30.01,NE,45,0.9,1.6,82,0.00,,,0.00,WUHU216HW,2013-01-27 05:38:00,
2013-01-26 21:43:00,41.8,36.6,30.01,ENE,68,0.0,2.5,82,0.00,,,0.00,WUHU216HW,2013-01-27 05:43:00,
2013-01-26 21:48:00,41.8,36.6,30.01,ENE,68,0.7,2.5,82,0.00,,,0.00,WUHU216HW,2013-01-27 05:48:00,
2013-01-26 21:54:00,41.6,36.5,30.01,ENE,68,0.4,1.3,82,0.00,,,0.00,WUHU216HW,2013-01-27 05:54:00,
2013-01-26 21:59:00,41.4,36.3,30.01,ENE,68,0.7,1.8,82,0.00,,,0.00,WUHU216HW,2013-01-27 05:59:00,
2013-01-26 22:04:00,41.4,36.3,30.01,WSW,248,4.7,4.7,82,0.00,,,0.00,WUHU216HW,2013-01-27 06:04:00,
2013-01-26 22:09:00,41.6,37.1,30.01,West,270,1.8,4.7,84,0.00,,,0.00,WUHU216HW,2013-01-27 06:09:00,
2013-01-26 22:14:00,42.3,38.1,30.01,WSW,248,4.3,4.3,85,0.00,,,0.00,WUHU216HW,2013-01-27 06:14:00,
2013-01-26 22:20:00,42.8,38.4,30.01,WSW,248,3.8,4.3,84,0.00,,,0.00,WUHU216HW,2013-01-27 06:20:00,
2013-01-26 22:25:00,43.4,38.5,30.02,SW,225,1.6,5.6,83,0.00,,,0.00,WUHU216HW,2013-01-27 06:25:00,
2013-01-26 22:31:00,43.6,38.4,30.01,West,270,4.7,7.2,82,0.00,,,0.00,WUHU216HW,2013-01-27 06:31:00,
2013-01-26 22:36:00,43.9,38.8,30.01,West,270,4.5,7.6,82,0.00,,,0.00,WUHU216HW,2013-01-27 06:36:00,
2013-01-26 22:41:00,43.9,38.8,30.01,NW,315,4.7,7.6,82,0.00,,,0.00,WUHU216HW,2013-01-27 06:41:00,
2013-01-26 22:47:00,43.9,38.4,30.02,WSW,248,2.5,7.6,81,0.00,,,0.00,WUHU216HW,2013-01-27 06:47:00,
2013-01-26 22:52:00,44.1,38.6,30.02,WNW,293,2.5,5.4,81,0.00,,,0.00,WUHU216HW,2013-01-27 06:52:00,
2013-01-26 22:57:00,44.1,39.0,30.02,West,270,6.5,6.5,82,0.00,,,0.00,WUHU216HW,2013-01-27 06:57:00,
2013-01-26 23:03:00,44.1,39.0,30.02,WSW,248,2.7,8.3,82,0.00,,,0.00,WUHU216HW,2013-01-27 07:03:00,
2013-01-26 23:08:00,44.3,39.2,30.02,WNW,293,3.4,7.6,82,0.00,,,0.00,WUHU216HW,2013-01-27 07:08:00,
2013-01-26 23:13:00,44.3,39.2,30.02,West,270,2.5,7.4,82,0.00,,,0.00,WUHU216HW,2013-01-27 07:13:00,
2013-01-26 23:18:00,44.3,39.2,30.02,WSW,248,3.6,7.4,82,0.00,,,0.00,WUHU216HW,2013-01-27 07:18:00,
2013-01-26 23:23:00,44.3,39.2,30.02,West,270,4.0,5.4,82,0.00,,,0.00,WUHU216HW,2013-01-27 07:23:00,
2013-01-26 23:28:00,44.3,39.2,30.02,SW,225,4.0,6.0,82,0.00,,,0.00,WUHU216HW,2013-01-27 07:28:00,
2013-01-26 23:34:00,44.3,39.2,30.02,West,270,3.1,6.7,82,0.00,,,0.00,WUHU216HW,2013-01-27 07:34:00,
2013-01-26 23:39:00,44.3,39.2,30.02,WSW,248,6.3,6.7,82,0.00,,,0.00,WUHU216HW,2013-01-27 07:39:00,
2013-01-26 23:44:00,44.3,39.2,30.02,WNW,293,6.0,6.3,82,0.00,,,0.00,WUHU216HW,2013-01-27 07:44:00,
2013-01-26 23:49:00,44.3,39.2,30.02,WSW,248,4.3,6.3,82,0.00,,,0.00,WUHU216HW,2013-01-27 07:49:00,
2013-01-26 23:54:00,44.3,39.2,30.02,WSW,248,4.9,7.6,82,0.00,,,0.00,WUHU216HW,2013-01-27 07:54:00,
2013-01-26 23:59:00,44.3,39.2,30.02,West,270,2.9,7.6,82,0.00,,,0.00,WUHU216HW,2013-01-27 07:59:00,